Time,TemperatureF,DewpointF,PressureIn,WindDirection,WindDirectionDegrees,WindSpeedMPH,WindSpeedGustMPH,Humidity,HourlyPrecipIn,Conditions,Clouds,dailyrainin,SoftwareType,DateUTC
2013-01-18 00:00:00,28.0,26.0,30.33,South,180,0.0,0.0,92,0.00,,,0.00,pywws,2013-01-18 08:00:00,
2013-01-18 00:05:00,28.0,26.0,30.32,South,180,0.0,0.0,92,0.00,,,0.00,pywws,2013-01-18 08:05:00,
2013-01-18 00:10:00,28.0,26.0,30.32,South,180,0.0,0.0,92,0.00,,,0.00,pywws,2013-01-18 08:10:00,
2013-01-18 00:15:00,27.9,25.6,30.33,South,180,0.0,0.0,91,0.00,,,0.00,pywws,2013-01-18 08:15:00,
2013-01-18 00:20:00,27.9,25.6,30.33,South,180,0.0,0.0,91,0.00,,,0.00,pywws,2013-01-18 08:20:00,
2013-01-18 00:25:00,27.9,25.6,30.32,South,180,0.0,0.0,91,0.00,,,0.00,pywws,2013-01-18 08:25:00,
2013-01-18 00:30:00,27.9,25.6,30.33,South,180,0.0,0.0,91,0.00,,,0.00,pywws,2013-01-18 08:30:00,
2013-01-18 00:35:00,27.7,25.4,30.32,South,180,0.0,0.0,91,0.00,,,0.00,pywws,2013-01-18 08:35:00,
2013-01-18 00:40:00,27.7,25.4,30.33,South,180,0.0,0.0,91,0.00,,,0.00,pywws,2013-01-18 08:40:00,
2013-01-18 00:45:00,27.7,25.4,30.33,South,180,0.0,0.0,91,0.00,,,0.00,pywws,2013-01-18 08:45:00,
2013-01-18 00:50:00,27.7,25.4,30.32,South,180,0.0,0.0,91,0.00,,,0.00,pywws,2013-01-18 08:50:00,
2013-01-18 00:55:00,27.7,25.4,30.32,South,180,0.0,0.0,91,0.00,,,0.00,pywws,2013-01-18 08:55:00,
2013-01-18 01:00:00,27.7,25.4,30.32,South,180,0.0,0.0,91,0.00,,,0.00,pywws,2013-01-18 09:00:00,
2013-01-18 01:05:00,27.5,25.2,30.32,South,180,0.0,0.0,91,0.00,,,0.00,pywws,2013-01-18 09:05:00,
2013-01-18 01:10:00,27.5,25.2,30.32,South,180,0.0,0.0,91,0.00,,,0.00,pywws,2013-01-18 09:10:00,
2013-01-18 01:15:00,27.3,25.0,30.32,South,180,0.0,0.0,91,0.00,,,0.00,pywws,2013-01-18 09:15:00,
2013-01-18 01:20:00,27.1,24.9,30.33,South,180,0.0,0.0,91,0.00,,,0.00,pywws,2013-01-18 09:20:00,
2013-01-18 01:25:00,27.1,24.9,30.32,South,180,0.0,0.0,91,0.00,,,0.00,pywws,2013-01-18 09:25:00,
2013-01-18 01:30:00,27.1,24.9,30.33,South,180,0.0,0.0,91,0.00,,,0.00,pywws,2013-01-18 09:30:00,
2013-01-18 01:35:00,27.1,24.9,30.32,South,180,0.0,0.0,91,0.00,,,0.00,pywws,2013-01-18 09:35:00,
2013-01-18 01:40:00,27.0,24.7,30.32,South,180,0.0,0.0,91,0.00,,,0.00,pywws,2013-01-18 09:40:00,
2013-01-18 01:45:00,27.1,24.9,30.32,South,180,0.0,0.0,91,0.00,,,0.00,pywws,2013-01-18 09:45:00,
2013-01-18 01:50:00,27.0,24.7,30.32,South,180,0.0,0.0,91,0.00,,,0.00,pywws,2013-01-18 09:50:00,
2013-01-18 01:55:00,26.8,24.5,30.32,South,180,0.0,0.0,91,0.00,,,0.00,pywws,2013-01-18 09:55:00,
2013-01-18 02:00:00,26.8,24.5,30.32,South,180,0.0,0.0,91,0.00,,,0.00,pywws,2013-01-18 10:00:00,
2013-01-18 02:05:00,26.8,24.5,30.32,South,180,0.0,0.0,91,0.00,,,0.00,pywws,2013-01-18 10:05:00,
2013-01-18 02:10:00,27.1,24.9,30.32,SE,135,0.0,0.0,91,0.00,,,0.00,pywws,2013-01-18 10:10:00,
2013-01-18 02:15:00,26.8,24.5,30.32,South,180,0.0,0.0,91,0.00,,,0.00,pywws,2013-01-18 10:15:00,
2013-01-18 02:19:00,26.6,24.3,30.32,South,180,0.0,0.0,91,0.00,,,0.00,pywws,2013-01-18 10:19:00,
2013-01-18 02:24:00,26.6,24.3,30.32,South,180,0.0,0.0,91,0.00,,,0.00,pywws,2013-01-18 10:24:00,
2013-01-18 02:29:00,26.6,24.3,30.32,South,180,0.0,0.0,91,0.00,,,0.00,pywws,2013-01-18 10:29:00,
2013-01-18 02:35:00,26.6,24.3,30.32,South,180,0.0,0.0,91,0.00,,,0.00,pywws,2013-01-18 10:35:00,
2013-01-18 02:40:00,26.4,24.2,30.32,South,180,0.0,0.0,91,0.00,,,0.00,pywws,2013-01-18 10:40:00,
2013-01-18 02:45:00,26.4,24.4,30.32,South,180,0.0,0.0,92,0.00,,,0.00,pywws,2013-01-18 10:45:00,
2013-01-18 02:50:00,26.6,24.1,30.32,East,90,0.0,0.0,90,0.00,,,0.00,pywws,2013-01-18 10:50:00,
2013-01-18 02:55:00,26.4,24.2,30.32,East,90,0.0,0.0,91,0.00,,,0.00,pywws,2013-01-18 10:55:00,
2013-01-18 03:00:00,26.4,24.2,30.32,East,90,0.0,0.0,91,0.00,,,0.00,pywws,2013-01-18 11:00:00,
2013-01-18 03:05:00,26.4,24.2,30.32,East,90,0.0,0.0,91,0.00,,,0.00,pywws,2013-01-18 11:05:00,
2013-01-18 03:10:00,26.2,24.0,30.32,South,180,0.0,1.6,91,0.00,,,0.00,pywws,2013-01-18 11:10:00,
2013-01-18 03:15:00,26.2,24.0,30.32,East,90,0.0,0.0,91,0.00,,,0.00,pywws,2013-01-18 11:15:00,
2013-01-18 03:20:00,26.2,24.0,30.32,East,90,0.0,0.0,91,0.00,,,0.00,pywws,2013-01-18 11:20:00,
2013-01-18 03:25:00,26.2,24.0,30.32,East,90,0.0,0.0,91,0.00,,,0.00,pywws,2013-01-18 11:25:00,
2013-01-18 03:30:00,26.4,24.2,30.31,East,90,0.0,0.0,91,0.00,,,0.00,pywws,2013-01-18 11:30:00,
2013-01-18 03:35:00,26.2,24.0,30.31,East,90,0.0,0.0,91,0.00,,,0.00,pywws,2013-01-18 11:35:00,
2013-01-18 03:40:00,26.2,24.0,30.31,East,90,0.0,0.0,91,0.00,,,0.00,pywws,2013-01-18 11:40:00,
2013-01-18 03:45:00,26.2,24.0,30.31,East,90,0.0,0.0,91,0.00,,,0.00,pywws,2013-01-18 11:45:00,
2013-01-18 03:50:00,26.2,24.0,30.31,East,90,0.0,0.0,91,0.00,,,0.00,pywws,2013-01-18 11:50:00,
2013-01-18 03:55:00,26.2,24.0,30.31,East,90,0.0,0.0,91,0.00,,,0.00,pywws,2013-01-18 11:55:00,
2013-01-18 04:00:00,26.1,23.8,30.31,East,90,0.0,0.0,91,0.00,,,0.00,pywws,2013-01-18 12:00:00,
2013-01-18 04:05:00,26.1,23.8,30.31,East,90,0.0,0.0,91,0.00,,,0.00,pywws,2013-01-18 12:05:00,
2013-01-18 04:10:00,26.1,23.8,30.30,East,90,0.0,0.0,91,0.00,,,0.00,pywws,2013-01-18 12:10:00,
2013-01-18 04:15:00,25.7,23.4,30.31,East,90,0.0,0.0,91,0.00,,,0.00,pywws,2013-01-18 12:15:00,
2013-01-18 04:20:00,25.9,23.6,30.31,East,90,0.0,0.0,91,0.00,,,0.00,pywws,2013-01-18 12:20:00,
2013-01-18 04:25:00,25.5,23.3,30.30,South,180,0.0,0.0,91,0.00,,,0.00,pywws,2013-01-18 12:25:00,
2013-01-18 04:30:00,25.7,23.4,30.30,South,180,0.0,0.0,91,0.00,,,0.00,pywws,2013-01-18 12:30:00,
2013-01-18 04:35:00,25.5,23.3,30.30,South,180,0.0,0.0,91,0.00,,,0.00,pywws,2013-01-18 12:35:00,
2013-01-18 04:40:00,25.5,23.3,30.30,South,180,0.0,0.0,91,0.00,,,0.00,pywws,2013-01-18 12:40:00,
2013-01-18 04:45:00,25.5,23.3,30.30,South,180,0.0,0.0,91,0.00,,,0.00,pywws,2013-01-18 12:45:00,
2013-01-18 04:50:00,25.7,23.4,30.30,South,180,0.0,0.0,91,0.00,,,0.00,pywws,2013-01-18 12:50:00,
2013-01-18 04:55:00,25.5,23.3,30.30,South,180,0.0,0.0,91,0.00,,,0.00,pywws,2013-01-18 12:55:00,
2013-01-18 05:00:00,25.5,23.3,30.30,South,180,0.0,0.0,91,0.00,,,0.00,pywws,2013-01-18 13:00:00,
2013-01-18 05:05:00,25.5,23.3,30.30,North,0,0.0,0.0,91,0.00,,,0.00,pywws,2013-01-18 13:05:00,
2013-01-18 05:10:00,25.3,23.1,30.29,West,270,0.0,0.0,91,0.00,,,0.00,pywws,2013-01-18 13:10:00,
2013-01-18 05:15:00,25.2,22.6,30.29,South,180,0.0,0.0,90,0.00,,,0.00,pywws,2013-01-18 13:15:00,
2013-01-18 05:20:00,25.2,22.6,30.30,South,180,0.0,0.0,90,0.00,,,0.00,pywws,2013-01-18 13:20:00,
2013-01-18 05:25:00,25.3,22.8,30.29,South,180,0.0,0.0,90,0.00,,,0.00,pywws,2013-01-18 13:25:00,
2013-01-18 05:30:00,25.2,22.6,30.29,South,180,0.0,0.0,90,0.00,,,0.00,pywws,2013-01-18 13:30:00,
2013-01-18 05:35:00,25.2,22.6,30.29,South,180,0.0,0.0,90,0.00,,,0.00,pywws,2013-01-18 13:35:00,
2013-01-18 05:40:00,25.5,23.3,30.29,South,180,0.0,0.0,91,0.00,,,0.00,pywws,2013-01-18 13:40:00,
2013-01-18 05:45:00,25.3,23.1,30.29,South,180,0.0,0.0,91,0.00,,,0.00,pywws,2013-01-18 13:45:00,
2013-01-18 05:50:00,25.3,22.8,30.30,South,180,0.0,0.0,90,0.00,,,0.00,pywws,2013-01-18 13:50:00,
2013-01-18 05:55:00,25.3,22.8,30.30,South,180,0.0,0.0,90,0.00,,,0.00,pywws,2013-01-18 13:55:00,
2013-01-18 06:00:00,25.5,23.0,30.30,South,180,0.0,0.0,90,0.00,,,0.00,pywws,2013-01-18 14:00:00,
2013-01-18 06:05:00,25.5,23.0,30.30,South,180,0.0,0.0,90,0.00,,,0.00,pywws,2013-01-18 14:05:00,
2013-01-18 06:10:00,25.3,22.8,30.30,South,180,0.0,0.0,90,0.00,,,0.00,pywws,2013-01-18 14:10:00,
2013-01-18 06:15:00,25.2,22.6,30.30,South,180,0.0,0.0,90,0.00,,,0.00,pywws,2013-01-18 14:15:00,
2013-01-18 06:20:00,25.2,22.6,30.30,South,180,0.0,0.0,90,0.00,,,0.00,pywws,2013-01-18 14:20:00,
2013-01-18 06:25:00,25.2,22.6,30.30,South,180,0.0,0.0,90,0.00,,,0.00,pywws,2013-01-18 14:25:00,
2013-01-18 06:30:00,25.0,22.5,30.30,South,180,0.0,0.0,90,0.00,,,0.00,pywws,2013-01-18 14:30:00,
2013-01-18 06:35:00,25.0,22.5,30.30,South,180,0.0,0.0,90,0.00,,,0.00,pywws,2013-01-18 14:35:00,
2013-01-18 06:40:00,25.0,22.5,30.30,South,180,0.0,0.0,90,0.00,,,0.00,pywws,2013-01-18 14:40:00,
2013-01-18 06:45:00,25.0,22.5,30.30,South,180,0.0,0.0,90,0.00,,,0.00,pywws,2013-01-18 14:45:00,
2013-01-18 06:50:00,24.8,22.3,30.30,South,180,0.0,0.0,90,0.00,,,0.00,pywws,2013-01-18 14:50:00,
2013-01-18 06:55:00,25.0,22.5,30.30,South,180,0.0,0.0,90,0.00,,,0.00,pywws,2013-01-18 14:55:00,
2013-01-18 07:00:00,25.0,22.5,30.30,North,0,0.0,0.0,90,0.00,,,0.00,pywws,2013-01-18 15:00:00,
2013-01-18 07:05:00,25.0,22.5,30.30,North,0,0.0,0.0,90,0.00,,,0.00,pywws,2013-01-18 15:05:00,
2013-01-18 07:10:00,24.8,22.3,30.30,North,0,0.0,0.0,90,0.00,,,0.00,pywws,2013-01-18 15:10:00,
2013-01-18 07:15:00,25.0,22.5,30.31,North,0,0.0,0.0,90,0.00,,,0.00,pywws,2013-01-18 15:15:00,
2013-01-18 07:22:00,25.0,22.5,30.31,North,0,0.0,0.0,90,0.00,,,0.00,pywws,2013-01-18 15:22:00,
2013-01-18 07:27:00,25.0,22.5,30.30,South,180,0.0,0.0,90,0.00,,,0.00,pywws,2013-01-18 15:27:00,
2013-01-18 07:32:00,25.0,22.5,30.30,South,180,0.0,0.0,90,0.00,,,0.00,pywws,2013-01-18 15:32:00,
2013-01-18 07:37:00,25.2,22.6,30.30,South,180,0.0,0.0,90,0.00,,,0.00,pywws,2013-01-18 15:37:00,
2013-01-18 07:42:00,25.0,22.5,30.30,South,180,0.0,0.0,90,0.00,,,0.00,pywws,2013-01-18 15:42:00,
2013-01-18 07:50:00,25.0,22.5,30.30,South,180,0.0,0.0,90,0.00,,,0.00,pywws,2013-01-18 15:50:00,
2013-01-18 07:55:00,25.2,22.6,30.31,South,180,0.0,0.0,90,0.00,,,0.00,pywws,2013-01-18 15:55:00,
2013-01-18 08:00:00,25.2,22.6,30.30,South,180,0.0,0.0,90,0.00,,,0.00,pywws,2013-01-18 16:00:00,
2013-01-18 08:12:00,25.2,22.6,30.30,South,180,0.0,0.0,90,0.00,,,0.00,pywws,2013-01-18 16:12:00,
2013-01-18 08:17:00,25.0,22.5,30.31,South,180,0.0,0.0,90,0.00,,,0.00,pywws,2013-01-18 16:17:00,
2013-01-18 08:22:00,25.0,22.2,30.31,South,180,0.0,0.0,89,0.00,,,0.00,pywws,2013-01-18 16:22:00,
2013-01-18 08:27:00,25.0,22.2,30.31,South,180,0.0,0.0,89,0.00,,,0.00,pywws,2013-01-18 16:27:00,
2013-01-18 08:32:00,25.0,22.2,30.31,South,180,0.0,0.0,89,0.00,,,0.00,pywws,2013-01-18 16:32:00,
2013-01-18 08:38:00,25.0,22.2,30.31,South,180,0.0,0.0,89,0.00,,,0.00,pywws,2013-01-18 16:38:00,
2013-01-18 08:43:00,25.0,22.2,30.31,East,90,0.0,0.0,89,0.00,,,0.00,pywws,2013-01-18 16:43:00,
2013-01-18 08:48:00,25.2,22.6,30.31,East,90,0.0,0.0,90,0.00,,,0.00,pywws,2013-01-18 16:48:00,
2013-01-18 08:54:00,25.2,22.6,30.32,East,90,0.0,0.0,90,0.00,,,0.00,pywws,2013-01-18 16:54:00,
2013-01-18 08:59:00,25.2,22.6,30.32,East,90,0.0,0.0,90,0.00,,,0.00,pywws,2013-01-18 16:59:00,
2013-01-18 09:04:00,25.2,22.6,30.32,East,90,0.0,0.0,90,0.00,,,0.00,pywws,2013-01-18 17:04:00,
2013-01-18 09:09:00,25.3,22.8,30.32,East,90,0.0,0.0,90,0.00,,,0.00,pywws,2013-01-18 17:09:00,
2013-01-18 09:14:00,25.3,22.8,30.32,East,90,0.0,0.0,90,0.00,,,0.00,pywws,2013-01-18 17:14:00,
2013-01-18 09:20:00,25.3,22.8,30.33,East,90,0.0,0.0,90,0.00,,,0.00,pywws,2013-01-18 17:20:00,
2013-01-18 09:25:00,25.5,23.0,30.33,East,90,0.0,0.0,90,0.00,,,0.00,pywws,2013-01-18 17:25:00,
2013-01-18 09:30:00,25.7,23.2,30.33,East,90,0.0,0.0,90,0.00,,,0.00,pywws,2013-01-18 17:30:00,
2013-01-18 09:35:00,25.9,23.4,30.34,East,90,0.0,0.0,90,0.00,,,0.00,pywws,2013-01-18 17:35:00,
2013-01-18 09:40:00,26.4,23.9,30.34,South,180,0.7,2.2,90,0.00,,,0.00,pywws,2013-01-18 17:40:00,
2013-01-18 09:46:00,26.8,24.0,30.34,North,0,0.7,1.6,89,0.00,,,0.00,pywws,2013-01-18 17:46:00,
2013-01-18 09:51:00,26.6,23.8,30.34,East,90,1.6,2.2,89,0.00,,,0.00,pywws,2013-01-18 17:51:00,
2013-01-18 09:56:00,27.0,24.2,30.34,NE,45,0.7,2.2,89,0.00,,,0.00,pywws,2013-01-18 17:56:00,
2013-01-18 10:01:00,27.3,24.8,30.34,East,90,1.6,2.2,90,0.00,,,0.00,pywws,2013-01-18 18:01:00,
2013-01-18 10:06:00,27.5,25.0,30.34,East,90,0.7,2.2,90,0.00,,,0.00,pywws,2013-01-18 18:06:00,
2013-01-18 10:12:00,27.5,25.0,30.34,NE,45,1.6,2.2,90,0.00,,,0.00,pywws,2013-01-18 18:12:00,
2013-01-18 10:17:00,27.5,25.0,30.34,East,90,0.0,0.0,90,0.00,,,0.00,pywws,2013-01-18 18:17:00,
2013-01-18 10:22:00,27.7,25.1,30.34,East,90,0.0,0.0,90,0.00,,,0.00,pywws,2013-01-18 18:22:00,
2013-01-18 10:27:00,27.7,25.1,30.34,North,0,0.0,1.6,90,0.00,,,0.00,pywws,2013-01-18 18:27:00,
2013-01-18 10:32:00,27.9,25.3,30.34,North,0,0.0,0.0,90,0.00,,,0.00,pywws,2013-01-18 18:32:00,
2013-01-18 10:38:00,28.0,25.5,30.33,North,0,0.0,0.0,90,0.00,,,0.00,pywws,2013-01-18 18:38:00,
2013-01-18 10:43:00,27.9,25.3,30.33,South,180,0.0,0.0,90,0.00,,,0.00,pywws,2013-01-18 18:43:00,
2013-01-18 10:48:00,28.0,25.5,30.34,South,180,0.0,0.0,90,0.00,,,0.00,pywws,2013-01-18 18:48:00,
2013-01-18 10:53:00,28.4,26.9,30.34,South,180,0.0,0.0,94,0.00,,,0.00,pywws,2013-01-18 18:53:00,
2013-01-18 10:58:00,28.4,26.9,30.34,East,90,0.0,0.0,94,0.00,,,0.00,pywws,2013-01-18 18:58:00,
2013-01-18 11:04:00,28.6,27.1,30.34,East,90,0.0,0.0,94,0.00,,,0.00,pywws,2013-01-18 19:04:00,
2013-01-18 11:09:00,28.9,27.4,30.34,East,90,0.0,0.0,94,0.00,,,0.00,pywws,2013-01-18 19:09:00,
2013-01-18 11:14:00,28.9,27.4,30.33,East,90,0.0,0.0,94,0.00,,,0.00,pywws,2013-01-18 19:14:00,
2013-01-18 11:20:00,29.3,27.8,30.33,East,90,0.0,0.0,94,0.00,,,0.00,pywws,2013-01-18 19:20:00,
2013-01-18 11:25:00,29.8,28.3,30.33,East,90,0.0,0.0,94,0.00,,,0.00,pywws,2013-01-18 19:25:00,
2013-01-18 11:30:00,30.2,28.4,30.32,East,90,0.0,0.0,93,0.00,,,0.00,pywws,2013-01-18 19:30:00,
2013-01-18 11:35:00,30.2,28.4,30.32,East,90,0.0,0.0,93,0.00,,,0.00,pywws,2013-01-18 19:35:00,
2013-01-18 11:40:00,30.0,28.5,30.32,East,90,0.0,0.0,94,0.00,,,0.00,pywws,2013-01-18 19:40:00,
2013-01-18 11:45:00,30.4,28.6,30.32,East,90,0.0,1.6,93,0.00,,,0.00,pywws,2013-01-18 19:45:00,
2013-01-18 11:50:00,31.1,29.3,30.32,East,90,0.0,0.0,93,0.00,,,0.00,pywws,2013-01-18 19:50:00,
2013-01-18 11:56:00,32.0,30.2,30.32,East,90,0.0,0.0,93,0.00,,,0.00,pywws,2013-01-18 19:56:00,
2013-01-18 12:01:00,32.0,30.2,30.32,East,90,0.0,1.6,93,0.00,,,0.00,pywws,2013-01-18 20:01:00,
2013-01-18 12:06:00,32.0,30.2,30.32,West,270,0.0,0.0,93,0.00,,,0.00,pywws,2013-01-18 20:06:00,
2013-01-18 12:11:00,32.2,30.4,30.32,West,270,0.0,0.0,93,0.00,,,0.00,pywws,2013-01-18 20:11:00,
2013-01-18 12:16:00,31.6,30.1,30.32,West,270,0.0,0.0,94,0.00,,,0.00,pywws,2013-01-18 20:16:00,
2013-01-18 12:22:00,31.6,29.9,30.32,West,270,0.0,2.2,93,0.00,,,0.00,pywws,2013-01-18 20:22:00,
2013-01-18 12:27:00,31.6,30.1,30.32,West,270,0.0,0.7,94,0.00,,,0.00,pywws,2013-01-18 20:27:00,
2013-01-18 12:32:00,32.4,30.6,30.33,East,90,1.6,2.2,93,0.00,,,0.00,pywws,2013-01-18 20:32:00,
2013-01-18 12:38:00,32.7,30.9,30.32,East,90,0.0,0.0,93,0.00,,,0.00,pywws,2013-01-18 20:38:00,
2013-01-18 12:43:00,32.7,30.9,30.32,East,90,0.0,0.7,93,0.00,,,0.00,pywws,2013-01-18 20:43:00,
2013-01-18 12:48:00,32.4,30.6,30.33,North,0,1.6,2.2,93,0.00,,,0.00,pywws,2013-01-18 20:48:00,
2013-01-18 12:53:00,32.7,30.7,30.33,North,0,0.0,1.6,92,0.00,,,0.00,pywws,2013-01-18 20:53:00,
2013-01-18 12:58:00,32.9,30.8,30.33,North,0,0.7,3.1,92,0.00,,,0.00,pywws,2013-01-18 20:58:00,
2013-01-18 13:04:00,32.9,30.8,30.33,East,90,0.7,2.2,92,0.00,,,0.00,pywws,2013-01-18 21:04:00,
2013-01-18 13:09:00,33.3,31.2,30.32,West,270,0.7,1.6,92,0.00,,,0.00,pywws,2013-01-18 21:09:00,
2013-01-18 13:14:00,32.9,30.8,30.32,North,0,1.6,3.1,92,0.00,,,0.00,pywws,2013-01-18 21:14:00,
2013-01-18 13:20:00,32.9,30.8,30.32,East,90,0.7,2.2,92,0.00,,,0.00,pywws,2013-01-18 21:20:00,
2013-01-18 13:25:00,33.1,31.0,30.32,NE,45,0.0,0.0,92,0.00,,,0.00,pywws,2013-01-18 21:25:00,
2013-01-18 13:30:00,33.1,31.0,30.31,East,90,0.7,2.2,92,0.00,,,0.00,pywws,2013-01-18 21:30:00,
2013-01-18 13:35:00,33.1,31.0,30.32,North,0,0.7,1.6,92,0.00,,,0.00,pywws,2013-01-18 21:35:00,
2013-01-18 13:40:00,33.3,31.2,30.32,North,0,0.7,1.6,92,0.00,,,0.00,pywws,2013-01-18 21:40:00,
2013-01-18 13:46:00,33.1,30.7,30.32,North,0,1.6,2.2,91,0.00,,,0.00,pywws,2013-01-18 21:46:00,
2013-01-18 13:51:00,33.1,30.7,30.32,North,0,1.6,3.1,91,0.00,,,0.00,pywws,2013-01-18 21:51:00,
2013-01-18 14:00:00,32.9,30.6,30.32,East,90,0.7,3.1,91,0.00,,,0.00,pywws,2013-01-18 22:00:00,
2013-01-18 14:05:00,33.1,30.7,30.33,West,270,1.6,3.1,91,0.00,,,0.00,pywws,2013-01-18 22:05:00,
2013-01-18 14:10:00,33.1,31.0,30.32,East,90,0.7,1.6,92,0.00,,,0.00,pywws,2013-01-18 22:10:00,
2013-01-18 14:15:00,32.9,30.8,30.32,East,90,1.6,3.1,92,0.00,,,0.00,pywws,2013-01-18 22:15:00,
2013-01-18 14:20:00,33.3,31.2,30.33,East,90,0.7,2.2,92,0.00,,,0.00,pywws,2013-01-18 22:20:00,
2013-01-18 14:25:00,33.4,31.4,30.32,East,90,0.0,0.7,92,0.00,,,0.00,pywws,2013-01-18 22:25:00,
2013-01-18 14:30:00,33.4,31.4,30.32,East,90,0.0,0.7,92,0.00,,,0.00,pywws,2013-01-18 22:30:00,
2013-01-18 14:40:00,33.8,31.5,30.32,East,90,0.0,0.0,91,0.00,,,0.00,pywws,2013-01-18 22:40:00,
2013-01-18 14:45:00,33.8,31.5,30.32,East,90,0.7,2.2,91,0.00,,,0.00,pywws,2013-01-18 22:45:00,
2013-01-18 14:50:00,33.8,31.5,30.31,West,270,0.0,2.2,91,0.00,,,0.00,pywws,2013-01-18 22:50:00,
2013-01-18 14:55:00,33.8,31.5,30.32,East,90,0.0,0.0,91,0.00,,,0.00,pywws,2013-01-18 22:55:00,
2013-01-18 15:00:00,33.6,31.5,30.32,West,270,0.0,0.0,92,0.00,,,0.00,pywws,2013-01-18 23:00:00,
2013-01-18 15:05:00,33.6,31.5,30.32,South,180,0.0,0.0,92,0.00,,,0.00,pywws,2013-01-18 23:05:00,
2013-01-18 15:10:00,33.8,31.5,30.32,South,180,0.0,0.0,91,0.00,,,0.00,pywws,2013-01-18 23:10:00,
2013-01-18 15:15:00,33.8,31.5,30.32,South,180,0.0,0.0,91,0.00,,,0.00,pywws,2013-01-18 23:15:00,
2013-01-18 15:20:00,33.3,30.9,30.32,South,180,0.0,0.7,91,0.00,,,0.00,pywws,2013-01-18 23:20:00,
2013-01-18 15:26:00,33.3,30.9,30.32,West,270,0.0,0.0,91,0.00,,,0.00,pywws,2013-01-18 23:26:00,
2013-01-18 15:31:00,33.3,31.2,30.32,West,270,0.7,1.6,92,0.00,,,0.00,pywws,2013-01-18 23:31:00,
2013-01-18 15:40:00,33.1,31.0,30.32,South,180,0.0,0.0,92,0.00,,,0.00,pywws,2013-01-18 23:40:00,
2013-01-18 15:45:00,33.1,31.0,30.32,South,180,0.0,0.0,92,0.00,,,0.00,pywws,2013-01-18 23:45:00,
2013-01-18 15:50:00,33.4,31.4,30.32,South,180,0.0,0.0,92,0.00,,,0.00,pywws,2013-01-18 23:50:00,
2013-01-18 15:55:00,33.3,31.2,30.32,West,270,0.0,0.0,92,0.00,,,0.00,pywws,2013-01-18 23:55:00,
2013-01-18 16:00:00,33.4,31.4,30.32,West,270,0.0,0.0,92,0.00,,,0.00,pywws,2013-01-19 00:00:00,
2013-01-18 16:05:00,33.1,31.0,30.32,East,90,0.0,0.0,92,0.00,,,0.00,pywws,2013-01-19 00:05:00,
2013-01-18 16:11:00,32.9,30.8,30.33,East,90,0.0,0.0,92,0.00,,,0.00,pywws,2013-01-19 00:11:00,
2013-01-18 16:16:00,32.9,30.8,30.33,East,90,0.0,0.0,92,0.00,,,0.00,pywws,2013-01-19 00:16:00,
2013-01-18 16:21:00,32.9,30.8,30.32,East,90,0.0,0.0,92,0.00,,,0.00,pywws,2013-01-19 00:21:00,
2013-01-18 16:26:00,32.5,30.5,30.33,East,90,2.2,3.1,92,0.00,,,0.00,pywws,2013-01-19 00:26:00,
2013-01-18 16:31:00,32.5,30.5,30.32,East,90,0.0,0.0,92,0.00,,,0.00,pywws,2013-01-19 00:31:00,
2013-01-18 16:36:00,32.7,30.9,30.32,East,90,0.0,0.0,93,0.00,,,0.00,pywws,2013-01-19 00:36:00,
2013-01-18 16:42:00,32.7,30.7,30.32,East,90,0.0,0.0,92,0.00,,,0.00,pywws,2013-01-19 00:42:00,
2013-01-18 16:47:00,32.5,30.7,30.33,West,270,0.0,1.6,93,0.00,,,0.00,pywws,2013-01-19 00:47:00,
2013-01-18 16:52:00,32.5,30.7,30.33,West,270,0.0,1.6,93,0.00,,,0.00,pywws,2013-01-19 00:52:00,
2013-01-18 17:00:00,32.4,30.6,30.33,South,180,0.0,0.0,93,0.00,,,0.00,pywws,2013-01-19 01:00:00,
2013-01-18 17:05:00,32.4,30.6,30.33,South,180,0.0,0.0,93,0.00,,,0.00,pywws,2013-01-19 01:05:00,
2013-01-18 17:10:00,32.4,30.6,30.33,South,180,0.0,0.0,93,0.00,,,0.00,pywws,2013-01-19 01:10:00,
2013-01-18 17:15:00,32.2,30.4,30.33,South,180,0.0,0.0,93,0.00,,,0.00,pywws,2013-01-19 01:15:00,
2013-01-18 17:20:00,32.2,30.4,30.32,South,180,0.0,0.0,93,0.00,,,0.00,pywws,2013-01-19 01:20:00,
2013-01-18 17:25:00,32.0,30.2,30.33,South,180,0.0,0.0,93,0.00,,,0.00,pywws,2013-01-19 01:25:00,
2013-01-18 17:31:00,32.0,30.2,30.33,East,90,0.0,0.0,93,0.00,,,0.00,pywws,2013-01-19 01:31:00,
2013-01-18 17:36:00,32.2,30.4,30.32,East,90,0.0,0.0,93,0.00,,,0.00,pywws,2013-01-19 01:36:00,
2013-01-18 17:41:00,32.0,30.2,30.33,East,90,0.0,0.0,93,0.00,,,0.00,pywws,2013-01-19 01:41:00,
2013-01-18 17:46:00,32.2,30.4,30.33,East,90,0.0,0.0,93,0.00,,,0.00,pywws,2013-01-19 01:46:00,
2013-01-18 17:51:00,32.0,30.2,30.33,East,90,0.0,0.0,93,0.00,,,0.00,pywws,2013-01-19 01:51:00,
2013-01-18 17:56:00,32.0,30.2,30.33,East,90,0.0,0.0,93,0.00,,,0.00,pywws,2013-01-19 01:56:00,
2013-01-18 18:01:00,31.8,30.3,30.33,East,90,0.0,0.0,94,0.00,,,0.00,pywws,2013-01-19 02:01:00,
2013-01-18 18:07:00,31.8,30.3,30.33,East,90,0.0,0.0,94,0.00,,,0.00,pywws,2013-01-19 02:07:00,
2013-01-18 18:12:00,31.6,30.1,30.33,West,270,0.0,0.0,94,0.00,,,0.00,pywws,2013-01-19 02:12:00,
2013-01-18 18:17:00,31.8,30.3,30.33,East,90,0.0,0.0,94,0.00,,,0.00,pywws,2013-01-19 02:17:00,
2013-01-18 18:23:00,31.6,30.1,30.33,SW,225,0.0,0.0,94,0.00,,,0.00,pywws,2013-01-19 02:23:00,
2013-01-18 18:28:00,31.5,29.9,30.33,SW,225,0.0,0.0,94,0.00,,,0.00,pywws,2013-01-19 02:28:00,
2013-01-18 18:33:00,31.5,29.9,30.33,SW,225,0.0,0.0,94,0.00,,,0.00,pywws,2013-01-19 02:33:00,
2013-01-18 18:38:00,31.5,29.9,30.33,SW,225,0.0,0.0,94,0.00,,,0.00,pywws,2013-01-19 02:38:00,
2013-01-18 18:43:00,31.3,29.8,30.33,West,270,0.0,0.0,94,0.00,,,0.00,pywws,2013-01-19 02:43:00,
2013-01-18 18:49:00,31.3,29.8,30.34,West,270,0.0,0.0,94,0.00,,,0.00,pywws,2013-01-19 02:49:00,
2013-01-18 18:54:00,31.5,29.9,30.33,West,270,0.0,0.7,94,0.00,,,0.00,pywws,2013-01-19 02:54:00,
2013-01-18 18:59:00,31.6,30.1,30.34,East,90,0.0,0.0,94,0.00,,,0.00,pywws,2013-01-19 02:59:00,
2013-01-18 19:04:00,31.8,30.3,30.34,East,90,0.0,0.0,94,0.00,,,0.00,pywws,2013-01-19 03:04:00,
2013-01-18 19:10:00,31.6,30.1,30.33,South,180,0.0,0.0,94,0.00,,,0.00,pywws,2013-01-19 03:10:00,
2013-01-18 19:15:00,31.8,30.3,30.33,South,180,0.0,0.0,94,0.00,,,0.00,pywws,2013-01-19 03:15:00,
2013-01-18 19:20:00,31.8,30.3,30.33,South,180,0.0,0.0,94,0.00,,,0.00,pywws,2013-01-19 03:20:00,
2013-01-18 19:25:00,32.0,30.5,30.34,West,270,0.0,0.0,94,0.00,,,0.00,pywws,2013-01-19 03:25:00,
2013-01-18 19:30:00,32.0,30.5,30.33,West,270,0.0,0.0,94,0.00,,,0.00,pywws,2013-01-19 03:30:00,
2013-01-18 19:35:00,31.8,30.6,30.34,West,270,0.0,0.0,95,0.00,,,0.00,pywws,2013-01-19 03:35:00,
2013-01-18 19:40:00,32.0,30.5,30.33,East,90,0.0,0.0,94,0.00,,,0.00,pywws,2013-01-19 03:40:00,
2013-01-18 19:45:00,32.0,30.5,30.34,East,90,0.0,0.0,94,0.00,,,0.00,pywws,2013-01-19 03:45:00,
2013-01-18 19:50:00,31.6,30.4,30.34,South,180,0.0,0.0,95,0.00,,,0.00,pywws,2013-01-19 03:50:00,
2013-01-18 20:00:00,31.5,30.2,30.33,South,180,0.0,0.0,95,0.00,,,0.00,pywws,2013-01-19 04:00:00,
2013-01-18 20:05:00,31.6,30.4,30.34,South,180,0.0,0.0,95,0.00,,,0.00,pywws,2013-01-19 04:05:00,
2013-01-18 20:10:00,31.8,30.6,30.34,South,180,0.0,0.0,95,0.00,,,0.00,pywws,2013-01-19 04:10:00,
2013-01-18 20:15:00,31.6,30.4,30.34,South,180,0.0,0.0,95,0.00,,,0.00,pywws,2013-01-19 04:15:00,
2013-01-18 20:20:00,31.6,30.4,30.34,South,180,0.0,0.0,95,0.00,,,0.00,pywws,2013-01-19 04:20:00,
2013-01-18 20:25:00,31.5,30.2,30.34,South,180,0.0,0.0,95,0.00,,,0.00,pywws,2013-01-19 04:25:00,
2013-01-18 20:30:00,31.3,30.0,30.34,South,180,0.0,0.0,95,0.00,,,0.00,pywws,2013-01-19 04:30:00,
2013-01-18 20:35:00,31.3,30.0,30.35,South,180,0.0,0.0,95,0.00,,,0.00,pywws,2013-01-19 04:35:00,
2013-01-18 20:40:00,31.3,30.0,30.35,South,180,0.0,0.0,95,0.00,,,0.00,pywws,2013-01-19 04:40:00,
2013-01-18 20:45:00,31.3,30.0,30.35,South,180,0.0,0.0,95,0.00,,,0.00,pywws,2013-01-19 04:45:00,
2013-01-18 20:50:00,31.3,30.0,30.35,South,180,0.0,0.0,95,0.00,,,0.00,pywws,2013-01-19 04:50:00,
2013-01-18 20:55:00,30.9,29.7,30.35,South,180,0.0,0.0,95,0.00,,,0.00,pywws,2013-01-19 04:55:00,
2013-01-18 21:00:00,31.1,29.8,30.35,South,180,0.0,0.0,95,0.00,,,0.00,pywws,2013-01-19 05:00:00,
2013-01-18 21:03:00,30.9,29.7,30.35,South,180,0.0,0.0,95,0.00,,,0.00,pywws,2013-01-19 05:03:00,
2013-01-18 21:08:00,30.9,29.7,30.35,South,180,0.0,0.0,95,0.00,,,0.00,pywws,2013-01-19 05:08:00,
2013-01-18 21:14:00,30.7,29.5,30.36,West,270,0.0,0.0,95,0.00,,,0.00,pywws,2013-01-19 05:14:00,
2013-01-18 21:19:00,30.7,29.5,30.36,West,270,0.0,0.0,95,0.00,,,0.00,pywws,2013-01-19 05:19:00,
2013-01-18 21:24:00,30.6,29.3,30.36,West,270,0.0,0.0,95,0.00,,,0.00,pywws,2013-01-19 05:24:00,
2013-01-18 21:29:00,30.7,29.5,30.36,West,270,0.0,0.0,95,0.00,,,0.00,pywws,2013-01-19 05:29:00,
2013-01-18 21:34:00,30.4,29.1,30.36,West,270,0.7,1.6,95,0.00,,,0.00,pywws,2013-01-19 05:34:00,
2013-01-18 21:39:00,30.6,29.3,30.36,West,270,0.0,0.0,95,0.00,,,0.00,pywws,2013-01-19 05:39:00,
2013-01-18 21:40:00,30.6,29.3,30.36,West,270,0.0,0.0,95,0.00,,,0.00,pywws,2013-01-19 05:40:00,
2013-01-18 21:45:00,30.6,29.3,30.36,West,270,0.0,0.0,95,0.00,,,0.00,pywws,2013-01-19 05:45:00,
2013-01-18 21:50:00,30.6,29.3,30.36,West,270,0.0,0.0,95,0.00,,,0.00,pywws,2013-01-19 05:50:00,
2013-01-18 22:00:00,30.4,29.1,30.36,West,270,0.0,0.7,95,0.00,,,0.00,pywws,2013-01-19 06:00:00,
2013-01-18 22:05:00,30.2,28.9,30.36,West,270,0.0,0.7,95,0.00,,,0.00,pywws,2013-01-19 06:05:00,
2013-01-18 22:10:00,30.2,28.9,30.37,West,270,0.0,0.0,95,0.00,,,0.00,pywws,2013-01-19 06:10:00,
2013-01-18 22:15:00,30.4,29.1,30.36,East,90,0.0,0.0,95,0.00,,,0.00,pywws,2013-01-19 06:15:00,
2013-01-18 22:20:00,30.4,29.1,30.36,East,90,0.0,0.0,95,0.00,,,0.00,pywws,2013-01-19 06:20:00,
2013-01-18 22:25:00,30.4,29.1,30.36,East,90,0.0,0.0,95,0.00,,,0.00,pywws,2013-01-19 06:25:00,
2013-01-18 22:30:00,30.4,29.1,30.36,North,0,0.0,0.0,95,0.00,,,0.00,pywws,2013-01-19 06:30:00,
2013-01-18 22:40:00,30.4,29.1,30.36,East,90,0.0,0.0,95,0.00,,,0.00,pywws,2013-01-19 06:40:00,
2013-01-18 22:45:00,30.4,29.1,30.37,West,270,0.0,0.0,95,0.00,,,0.00,pywws,2013-01-19 06:45:00,
2013-01-18 22:50:00,30.4,29.1,30.37,West,270,0.0,0.0,95,0.00,,,0.00,pywws,2013-01-19 06:50:00,
2013-01-18 22:55:00,30.6,29.0,30.37,East,90,0.0,0.0,94,0.00,,,0.00,pywws,2013-01-19 06:55:00,
2013-01-18 23:00:00,30.6,29.0,30.37,East,90,0.0,0.0,94,0.00,,,0.00,pywws,2013-01-19 07:00:00,
2013-01-18 23:05:00,30.4,28.9,30.36,West,270,0.0,0.0,94,0.00,,,0.00,pywws,2013-01-19 07:05:00,
2013-01-18 23:10:00,30.6,29.0,30.36,West,270,0.0,0.0,94,0.00,,,0.00,pywws,2013-01-19 07:10:00,
2013-01-18 23:20:00,30.4,28.9,30.36,West,270,0.0,0.0,94,0.00,,,0.00,pywws,2013-01-19 07:20:00,
2013-01-18 23:25:00,30.6,29.0,30.37,East,90,0.0,0.0,94,0.00,,,0.00,pywws,2013-01-19 07:25:00,
2013-01-18 23:30:00,30.6,29.0,30.36,East,90,0.0,0.0,94,0.00,,,0.00,pywws,2013-01-19 07:30:00,
2013-01-18 23:35:00,30.6,29.0,30.36,East,90,0.0,0.0,94,0.00,,,0.00,pywws,2013-01-19 07:35:00,
2013-01-18 23:40:00,30.4,28.9,30.36,South,180,0.0,0.0,94,0.00,,,0.00,pywws,2013-01-19 07:40:00,
2013-01-18 23:46:00,30.6,29.0,30.36,South,180,0.0,0.0,94,0.00,,,0.00,pywws,2013-01-19 07:46:00,
2013-01-18 23:51:00,30.6,29.0,30.36,East,90,0.0,0.0,94,0.00,,,0.00,pywws,2013-01-19 07:51:00,
2013-01-18 23:56:00,30.4,28.9,30.36,North,0,0.0,0.0,94,0.00,,,0.00,pywws,2013-01-19 07:56:00,